Lawton Fort Sill Regional Airport Lawton US
ICAO: KLAW
IATA: LAW
Category: Medium
Scheduled Services: No

Elevation: 1110 ft
TransAlt. 18000 ft.

Airport Communications:
FORT SILL APP/DEP:120.55
ATIS:120.75
CTAF:119.9
GND:121.9
TWR:119.9
UNICOM:122.95

KLAW Zoom In..

Runways:

(A) RW 17 length 8599 ft width 150 ft
---- / hdg 171

(B) RW 35 length 8599 ft width 150 ft
ILS 109.10 / hdg 351

Location; KLAW
Day. 22 / Time. 23.53 Zulu
* Altimeter: 30.05
* Temperature: 11° c. 51.8°f.
* Wind from: 310° Speed 05 kn.
Dewpoint: -07° c.
Visibility: 10 Statute Miles.
Clouds: Clear (automated report).

KLAW 222353Z 31005KT 10SM CLR 11/M07 A3005 RMK AO2 SLP181 T01061072 10133 20106 51024


Wind From 310°
Speed 05 kn.

YouTube Music Video
 
jpsmedia.com for Web Design  worldairports.se 2018   terms of use